Time,TemperatureF,DewpointF,PressureIn,WindDirection,WindDirectionDegrees,WindSpeedMPH,WindSpeedGustMPH,Humidity,HourlyPrecipIn,Conditions,Clouds,dailyrainin,SoftwareType,DateUTC
2013-02-20 00:00:00,64.8,59.9,30.12,SW,225,0.0,0.0,84,0.00,,,0.00,WUHU216HW,2013-02-20 05:00:00,
2013-02-20 00:05:00,64.6,59.3,30.12,SW,225,0.0,0.0,83,0.00,,,0.00,WUHU216HW,2013-02-20 05:05:00,
2013-02-20 00:10:00,64.6,59.3,30.12,SW,225,0.0,0.0,83,0.00,,,0.00,WUHU216HW,2013-02-20 05:10:00,
2013-02-20 00:15:00,64.4,59.1,30.12,SSW,203,0.0,0.2,83,0.00,,,0.00,WUHU216HW,2013-02-20 05:15:00,
2013-02-20 00:20:00,64.4,59.5,30.12,SSW,203,0.0,0.4,84,0.00,,,0.00,WUHU216HW,2013-02-20 05:20:00,
2013-02-20 00:25:00,64.4,59.5,30.12,SW,225,0.0,0.4,84,0.00,,,0.00,WUHU216HW,2013-02-20 05:25:00,
2013-02-20 00:30:00,64.6,59.7,30.11,SW,225,0.0,0.4,84,0.00,,,0.00,WUHU216HW,2013-02-20 05:30:00,
2013-02-20 00:35:00,64.6,59.7,30.11,WSW,248,0.2,0.4,84,0.00,,,0.00,WUHU216HW,2013-02-20 05:35:00,
2013-02-20 00:40:00,64.6,59.7,30.11,ESE,113,0.0,0.4,84,0.00,,,0.00,WUHU216HW,2013-02-20 05:40:00,
2013-02-20 00:45:00,64.4,59.9,30.12,SSW,203,0.4,0.4,85,0.00,,,0.00,WUHU216HW,2013-02-20 05:45:00,
2013-02-20 00:50:00,64.4,59.9,30.12,West,270,0.0,0.4,85,0.00,,,0.00,WUHU216HW,2013-02-20 05:50:00,
2013-02-20 00:55:00,64.4,59.9,30.12,SSW,203,0.0,0.4,85,0.00,,,0.00,WUHU216HW,2013-02-20 05:55:00,
2013-02-20 01:00:00,64.6,60.0,30.12,SSW,203,0.4,0.4,85,0.00,,,0.00,WUHU216HW,2013-02-20 06:00:00,
2013-02-20 01:05:00,64.6,60.0,30.11,SSW,203,0.0,0.4,85,0.00,,,0.00,WUHU216HW,2013-02-20 06:05:00,
2013-02-20 01:10:00,64.6,60.0,30.12,South,180,0.0,0.4,85,0.00,,,0.00,WUHU216HW,2013-02-20 06:10:00,
2013-02-20 01:15:00,64.6,60.0,30.12,SW,225,0.0,0.2,85,0.00,,,0.00,WUHU216HW,2013-02-20 06:15:00,
2013-02-20 01:20:00,64.6,60.0,30.12,South,180,0.0,0.0,85,0.00,,,0.00,WUHU216HW,2013-02-20 06:20:00,
2013-02-20 01:25:00,64.6,60.0,30.12,SW,225,0.0,0.4,85,0.00,,,0.00,WUHU216HW,2013-02-20 06:25:00,
2013-02-20 01:30:00,64.6,60.0,30.12,SW,225,0.0,0.4,85,0.00,,,0.00,WUHU216HW,2013-02-20 06:30:00,
2013-02-20 01:35:00,64.6,60.0,30.12,SW,225,0.0,0.4,85,0.00,,,0.00,WUHU216HW,2013-02-20 06:35:00,
2013-02-20 01:40:00,64.6,60.0,30.12,SW,225,0.0,0.4,85,0.00,,,0.00,WUHU216HW,2013-02-20 06:40:00,
2013-02-20 01:45:00,64.6,60.0,30.12,WSW,248,0.0,0.0,85,0.00,,,0.00,WUHU216HW,2013-02-20 06:45:00,
2013-02-20 01:50:00,64.6,60.0,30.11,WSW,248,0.0,0.0,85,0.00,,,0.00,WUHU216HW,2013-02-20 06:50:00,
2013-02-20 01:55:00,64.4,59.9,30.11,WSW,248,0.0,0.0,85,0.00,,,0.00,WUHU216HW,2013-02-20 06:55:00,
2013-02-20 02:00:00,64.4,59.9,30.11,WSW,248,0.0,0.0,85,0.00,,,0.00,WUHU216HW,2013-02-20 07:00:00,
2013-02-20 02:05:00,64.4,59.9,30.11,WSW,248,0.0,0.0,85,0.00,,,0.00,WUHU216HW,2013-02-20 07:05:00,
2013-02-20 02:10:00,64.4,59.5,30.11,WSW,248,0.0,0.0,84,0.00,,,0.00,WUHU216HW,2013-02-20 07:10:00,
2013-02-20 02:15:00,64.3,59.3,30.11,WSW,248,0.0,0.0,84,0.00,,,0.00,WUHU216HW,2013-02-20 07:15:00,
2013-02-20 02:20:00,64.3,59.7,30.11,WSW,248,0.0,0.0,85,0.00,,,0.00,WUHU216HW,2013-02-20 07:20:00,
2013-02-20 02:25:00,64.3,59.7,30.11,WSW,248,0.0,0.0,85,0.00,,,0.00,WUHU216HW,2013-02-20 07:25:00,
2013-02-20 02:30:00,64.3,59.7,30.10,WSW,248,0.0,0.0,85,0.00,,,0.00,WUHU216HW,2013-02-20 07:30:00,
2013-02-20 02:35:00,64.3,59.7,30.10,WSW,248,0.0,0.0,85,0.00,,,0.00,WUHU216HW,2013-02-20 07:35:00,
2013-02-20 02:40:00,64.3,59.7,30.10,WSW,248,0.0,0.0,85,0.00,,,0.00,WUHU216HW,2013-02-20 07:40:00,
2013-02-20 02:45:00,64.3,59.7,30.10,WSW,248,0.0,0.0,85,0.00,,,0.00,WUHU216HW,2013-02-20 07:45:00,
2013-02-20 02:50:00,64.1,59.5,30.10,WSW,248,0.0,0.0,85,0.00,,,0.00,WUHU216HW,2013-02-20 07:50:00,
2013-02-20 02:55:00,64.1,59.5,30.10,WSW,248,0.0,0.0,85,0.00,,,0.00,WUHU216HW,2013-02-20 07:55:00,
2013-02-20 03:00:00,64.3,59.7,30.10,WSW,248,0.0,0.0,85,0.00,,,0.00,WUHU216HW,2013-02-20 08:00:00,
2013-02-20 03:05:00,64.3,60.0,30.10,NNW,338,0.0,0.9,86,0.00,,,0.00,WUHU216HW,2013-02-20 08:05:00,
2013-02-20 03:10:00,64.4,60.6,30.10,NW,315,0.0,0.9,87,0.00,,,0.00,WUHU216HW,2013-02-20 08:10:00,
2013-02-20 03:15:00,64.4,60.6,30.10,NNW,338,0.0,0.4,87,0.00,,,0.00,WUHU216HW,2013-02-20 08:15:00,
2013-02-20 03:20:00,64.4,60.6,30.10,West,270,0.0,0.2,87,0.00,,,0.00,WUHU216HW,2013-02-20 08:20:00,
2013-02-20 03:25:00,64.6,60.7,30.10,ESE,113,0.4,0.4,87,0.00,,,0.00,WUHU216HW,2013-02-20 08:25:00,
2013-02-20 03:30:00,64.6,60.7,30.11,WNW,293,0.0,0.4,87,0.00,,,0.00,WUHU216HW,2013-02-20 08:30:00,
2013-02-20 03:35:00,64.6,60.7,30.11,SE,135,0.0,0.2,87,0.00,,,0.00,WUHU216HW,2013-02-20 08:35:00,
2013-02-20 03:40:00,64.6,60.7,30.10,North,0,0.0,0.0,87,0.00,,,0.00,WUHU216HW,2013-02-20 08:40:00,
2013-02-20 03:45:00,64.4,60.6,30.10,ENE,68,0.0,0.0,87,0.00,,,0.00,WUHU216HW,2013-02-20 08:45:00,
2013-02-20 03:50:00,64.4,60.6,30.10,East,90,0.0,0.0,87,0.00,,,0.00,WUHU216HW,2013-02-20 08:50:00,
2013-02-20 03:55:00,64.4,60.8,30.09,NE,45,0.2,0.7,88,0.00,,,0.00,WUHU216HW,2013-02-20 08:55:00,
2013-02-20 04:00:00,64.3,60.7,30.09,SE,135,0.0,1.8,88,0.00,,,0.00,WUHU216HW,2013-02-20 09:00:00,
2013-02-20 04:05:00,64.3,60.7,30.09,NE,45,0.0,1.8,88,0.00,,,0.00,WUHU216HW,2013-02-20 09:05:00,
2013-02-20 04:10:00,64.3,60.7,30.09,NE,45,0.0,0.4,88,0.00,,,0.00,WUHU216HW,2013-02-20 09:10:00,
2013-02-20 04:15:00,64.1,60.5,30.09,NW,315,0.2,0.4,88,0.00,,,0.00,WUHU216HW,2013-02-20 09:15:00,
2013-02-20 04:20:00,64.1,60.5,30.09,North,0,0.2,0.7,88,0.00,,,0.00,WUHU216HW,2013-02-20 09:20:00,
2013-02-20 04:25:00,64.1,60.5,30.09,NNE,23,0.4,0.7,88,0.00,,,0.00,WUHU216HW,2013-02-20 09:25:00,
2013-02-20 04:30:00,64.1,60.5,30.10,North,0,0.0,0.4,88,0.00,,,0.00,WUHU216HW,2013-02-20 09:30:00,
2013-02-20 04:35:00,64.1,60.5,30.10,NNE,23,0.0,0.4,88,0.00,,,0.00,WUHU216HW,2013-02-20 09:35:00,
2013-02-20 04:40:00,64.1,60.5,30.10,NNW,338,0.0,0.2,88,0.00,,,0.00,WUHU216HW,2013-02-20 09:40:00,
2013-02-20 04:45:00,64.1,60.5,30.10,NNE,23,0.0,0.2,88,0.00,,,0.00,WUHU216HW,2013-02-20 09:45:00,
2013-02-20 04:50:00,64.1,60.5,30.10,NNE,23,0.0,0.0,88,0.00,,,0.00,WUHU216HW,2013-02-20 09:50:00,
2013-02-20 04:55:00,64.1,60.5,30.10,NNE,23,0.0,0.2,88,0.00,,,0.00,WUHU216HW,2013-02-20 09:55:00,
2013-02-20 05:00:00,64.1,60.5,30.10,North,0,0.0,0.4,88,0.00,,,0.00,WUHU216HW,2013-02-20 10:00:00,
2013-02-20 05:05:00,64.1,60.5,30.10,NNE,23,0.0,0.4,88,0.00,,,0.00,WUHU216HW,2013-02-20 10:05:00,
2013-02-20 05:10:00,64.1,60.5,30.11,NNW,338,0.0,0.4,88,0.00,,,0.00,WUHU216HW,2013-02-20 10:10:00,
2013-02-20 05:15:00,64.3,60.7,30.11,NNW,338,0.0,0.0,88,0.00,,,0.00,WUHU216HW,2013-02-20 10:15:00,
2013-02-20 05:20:00,64.3,60.7,30.11,WNW,293,0.0,0.0,88,0.00,,,0.00,WUHU216HW,2013-02-20 10:20:00,
2013-02-20 05:25:00,64.3,60.4,30.11,North,0,0.0,0.0,87,0.00,,,0.00,WUHU216HW,2013-02-20 10:25:00,
2013-02-20 05:30:00,64.3,60.4,30.11,NNW,338,0.0,0.0,87,0.00,,,0.00,WUHU216HW,2013-02-20 10:30:00,
2013-02-20 05:35:00,64.3,60.4,30.11,NW,315,0.0,0.0,87,0.00,,,0.00,WUHU216HW,2013-02-20 10:35:00,
2013-02-20 05:40:00,64.3,60.4,30.11,NNE,23,0.0,0.0,87,0.00,,,0.00,WUHU216HW,2013-02-20 10:40:00,
2013-02-20 05:45:00,64.3,60.4,30.11,NNW,338,0.0,0.4,87,0.00,,,0.00,WUHU216HW,2013-02-20 10:45:00,
2013-02-20 05:50:00,64.3,60.4,30.12,North,0,0.0,0.4,87,0.00,,,0.00,WUHU216HW,2013-02-20 10:50:00,
2013-02-20 05:55:00,64.3,60.4,30.12,NW,315,0.0,0.2,87,0.00,,,0.00,WUHU216HW,2013-02-20 10:55:00,
2013-02-20 06:00:00,64.3,60.4,30.12,NNW,338,0.0,0.0,87,0.00,,,0.00,WUHU216HW,2013-02-20 11:00:00,
2013-02-20 06:05:00,64.3,60.4,30.12,NW,315,0.0,0.2,87,0.00,,,0.00,WUHU216HW,2013-02-20 11:05:00,
2013-02-20 06:10:00,64.3,60.4,30.12,WNW,293,0.0,0.4,87,0.00,,,0.00,WUHU216HW,2013-02-20 11:10:00,
2013-02-20 06:15:00,64.3,60.4,30.12,WNW,293,0.0,0.4,87,0.00,,,0.00,WUHU216HW,2013-02-20 11:15:00,
2013-02-20 06:20:00,64.3,60.4,30.13,NW,315,0.0,0.4,87,0.00,,,0.00,WUHU216HW,2013-02-20 11:20:00,
2013-02-20 06:25:00,64.1,60.2,30.13,North,0,0.0,0.4,87,0.00,,,0.00,WUHU216HW,2013-02-20 11:25:00,
2013-02-20 06:30:00,64.1,60.2,30.13,NNE,23,0.0,0.0,87,0.00,,,0.00,WUHU216HW,2013-02-20 11:30:00,
2013-02-20 06:35:00,64.1,60.2,30.13,NNW,338,0.0,0.2,87,0.00,,,0.00,WUHU216HW,2013-02-20 11:35:00,
2013-02-20 06:40:00,64.1,60.2,30.13,NNW,338,0.0,0.2,87,0.00,,,0.00,WUHU216HW,2013-02-20 11:40:00,
2013-02-20 06:45:00,64.1,60.2,30.13,North,0,0.0,0.0,87,0.00,,,0.00,WUHU216HW,2013-02-20 11:45:00,
2013-02-20 06:50:00,64.1,60.2,30.13,NNW,338,0.0,0.0,87,0.00,,,0.00,WUHU216HW,2013-02-20 11:50:00,
2013-02-20 06:55:00,64.1,60.2,30.13,NNW,338,0.0,0.0,87,0.00,,,0.00,WUHU216HW,2013-02-20 11:55:00,
2013-02-20 07:00:00,64.1,60.2,30.13,NNW,338,0.0,0.0,87,0.00,,,0.00,WUHU216HW,2013-02-20 12:00:00,
2013-02-20 07:05:00,64.1,60.2,30.13,NE,45,0.0,0.0,87,0.00,,,0.00,WUHU216HW,2013-02-20 12:05:00,
2013-02-20 07:10:00,64.1,60.2,30.14,NW,315,0.0,0.0,87,0.00,,,0.00,WUHU216HW,2013-02-20 12:10:00,
2013-02-20 07:15:00,64.1,60.2,30.13,North,0,0.0,0.0,87,0.00,,,0.00,WUHU216HW,2013-02-20 12:15:00,
2013-02-20 07:20:00,64.1,60.2,30.13,North,0,0.0,0.4,87,0.00,,,0.00,WUHU216HW,2013-02-20 12:20:00,
2013-02-20 07:25:00,64.1,60.2,30.14,NNW,338,0.0,0.4,87,0.00,,,0.00,WUHU216HW,2013-02-20 12:25:00,
2013-02-20 07:30:00,63.9,60.0,30.14,NNW,338,0.0,0.0,87,0.00,,,0.00,WUHU216HW,2013-02-20 12:30:00,
2013-02-20 07:35:00,64.1,60.2,30.14,NNE,23,0.0,0.0,87,0.00,,,0.00,WUHU216HW,2013-02-20 12:35:00,
2013-02-20 07:40:00,64.1,60.2,30.14,NNW,338,0.0,0.0,87,0.00,,,0.00,WUHU216HW,2013-02-20 12:40:00,
2013-02-20 07:45:00,64.1,60.2,30.14,North,0,0.0,0.0,87,0.00,,,0.00,WUHU216HW,2013-02-20 12:45:00,
2013-02-20 07:50:00,64.1,60.2,30.14,North,0,0.0,0.0,87,0.00,,,0.00,WUHU216HW,2013-02-20 12:50:00,
2013-02-20 07:55:00,64.1,60.5,30.15,NNW,338,0.0,0.0,88,0.00,,,0.00,WUHU216HW,2013-02-20 12:55:00,
2013-02-20 08:00:00,64.1,60.5,30.15,North,0,0.0,0.0,88,0.00,,,0.00,WUHU216HW,2013-02-20 13:00:00,
2013-02-20 08:05:00,64.1,60.5,30.15,NNW,338,0.0,0.0,88,0.00,,,0.00,WUHU216HW,2013-02-20 13:05:00,
2013-02-20 08:10:00,64.3,60.7,30.15,North,0,0.0,0.0,88,0.00,,,0.00,WUHU216HW,2013-02-20 13:10:00,
2013-02-20 08:15:00,64.3,60.7,30.15,NNE,23,0.0,0.0,88,0.00,,,0.00,WUHU216HW,2013-02-20 13:15:00,
2013-02-20 08:20:00,64.3,60.7,30.15,NW,315,0.0,0.0,88,0.00,,,0.00,WUHU216HW,2013-02-20 13:20:00,
2013-02-20 08:25:00,64.3,60.7,30.15,North,0,0.0,0.0,88,0.00,,,0.00,WUHU216HW,2013-02-20 13:25:00,
2013-02-20 08:30:00,64.3,60.7,30.15,North,0,0.0,0.0,88,0.00,,,0.00,WUHU216HW,2013-02-20 13:30:00,
2013-02-20 08:35:00,64.3,60.4,30.15,NNW,338,0.0,0.0,87,0.00,,,0.00,WUHU216HW,2013-02-20 13:35:00,
2013-02-20 08:40:00,64.4,60.6,30.15,North,0,0.0,0.2,87,0.00,,,0.00,WUHU216HW,2013-02-20 13:40:00,
2013-02-20 08:45:00,64.4,60.8,30.14,North,0,0.0,0.4,88,0.00,,,0.00,WUHU216HW,2013-02-20 13:45:00,
2013-02-20 08:50:00,64.4,60.8,30.14,NNE,23,0.0,0.4,88,0.00,,,0.00,WUHU216HW,2013-02-20 13:50:00,
2013-02-20 08:55:00,64.6,61.0,30.14,SSW,203,0.0,0.2,88,0.00,,,0.00,WUHU216HW,2013-02-20 13:55:00,
2013-02-20 09:00:00,64.6,61.0,30.14,NE,45,0.0,0.7,88,0.00,,,0.00,WUHU216HW,2013-02-20 14:00:00,
2013-02-20 09:05:00,64.8,61.2,30.15,NNW,338,0.0,0.7,88,0.00,,,0.00,WUHU216HW,2013-02-20 14:05:00,
2013-02-20 09:10:00,64.8,61.2,30.14,ENE,68,0.0,0.7,88,0.00,,,0.00,WUHU216HW,2013-02-20 14:10:00,
2013-02-20 09:15:00,65.0,61.4,30.14,North,0,0.2,0.7,88,0.00,,,0.00,WUHU216HW,2013-02-20 14:15:00,
2013-02-20 09:20:00,65.2,61.6,30.14,East,90,0.0,1.1,88,0.00,,,0.00,WUHU216HW,2013-02-20 14:20:00,
2013-02-20 09:25:00,65.2,61.6,30.14,NW,315,1.6,1.6,88,0.00,,,0.00,WUHU216HW,2013-02-20 14:25:00,
2013-02-20 09:30:00,65.5,61.8,30.15,East,90,0.4,1.8,88,0.00,,,0.00,WUHU216HW,2013-02-20 14:30:00,
2013-02-20 09:35:00,65.7,62.4,30.15,North,0,0.0,1.8,89,0.00,,,0.00,WUHU216HW,2013-02-20 14:35:00,
2013-02-20 09:40:00,65.9,62.2,30.15,North,0,0.2,0.7,88,0.00,,,0.00,WUHU216HW,2013-02-20 14:40:00,
2013-02-20 09:45:00,66.1,62.4,30.15,South,180,0.0,0.4,88,0.00,,,0.00,WUHU216HW,2013-02-20 14:45:00,
2013-02-20 09:50:00,66.4,62.7,30.15,East,90,0.0,2.0,88,0.00,,,0.00,WUHU216HW,2013-02-20 14:50:00,
2013-02-20 09:55:00,66.6,62.9,30.14,East,90,0.2,2.0,88,0.00,,,0.00,WUHU216HW,2013-02-20 14:55:00,
2013-02-20 10:00:00,66.8,62.7,30.14,ESE,113,0.4,1.6,87,0.00,,,0.00,WUHU216HW,2013-02-20 15:00:00,
2013-02-20 10:05:00,67.1,63.1,30.15,NNE,23,0.4,1.6,87,0.00,,,0.00,WUHU216HW,2013-02-20 15:05:00,
2013-02-20 10:10:00,67.3,63.0,30.15,NNW,338,0.4,1.6,86,0.00,,,0.00,WUHU216HW,2013-02-20 15:10:00,
2013-02-20 10:15:00,67.5,63.2,30.15,NE,45,0.4,0.7,86,0.00,,,0.00,WUHU216HW,2013-02-20 15:15:00,
2013-02-20 10:20:00,67.7,63.0,30.15,WNW,293,0.0,0.7,85,0.00,,,0.00,WUHU216HW,2013-02-20 15:20:00,
2013-02-20 10:25:00,67.7,63.0,30.15,East,90,0.9,1.1,85,0.00,,,0.00,WUHU216HW,2013-02-20 15:25:00,
2013-02-20 10:30:00,67.9,63.2,30.15,NNE,23,0.0,1.1,85,0.00,,,0.00,WUHU216HW,2013-02-20 15:30:00,
2013-02-20 10:35:00,67.9,62.8,30.15,NNW,338,0.4,1.3,84,0.00,,,0.00,WUHU216HW,2013-02-20 15:35:00,
2013-02-20 10:40:00,68.0,63.0,30.15,WSW,248,0.0,1.3,84,0.00,,,0.00,WUHU216HW,2013-02-20 15:40:00,
2013-02-20 10:45:00,68.0,63.0,30.15,ESE,113,0.2,2.2,84,0.00,,,0.00,WUHU216HW,2013-02-20 15:45:00,
2013-02-20 10:50:00,68.0,63.0,30.15,NW,315,0.2,2.2,84,0.00,,,0.00,WUHU216HW,2013-02-20 15:50:00,
2013-02-20 10:55:00,68.2,63.2,30.15,North,0,0.2,2.0,84,0.00,,,0.00,WUHU216HW,2013-02-20 15:55:00,
2013-02-20 11:00:00,68.4,63.1,30.15,East,90,0.9,2.0,83,0.00,,,0.00,WUHU216HW,2013-02-20 16:00:00,
2013-02-20 11:05:00,68.8,63.4,30.15,East,90,0.4,1.8,83,0.00,,,0.00,WUHU216HW,2013-02-20 16:05:00,
2013-02-20 11:10:00,68.8,63.1,30.15,East,90,0.7,2.5,82,0.00,,,0.00,WUHU216HW,2013-02-20 16:10:00,
2013-02-20 11:15:00,68.9,63.2,30.15,NE,45,0.0,2.5,82,0.00,,,0.00,WUHU216HW,2013-02-20 16:15:00,
2013-02-20 11:20:00,68.8,62.7,30.15,North,0,0.0,1.8,81,0.00,,,0.00,WUHU216HW,2013-02-20 16:20:00,
2013-02-20 11:25:00,69.1,63.1,30.15,North,0,0.0,1.3,81,0.00,,,0.00,WUHU216HW,2013-02-20 16:25:00,
2013-02-20 11:30:00,69.5,63.4,30.15,NE,45,0.7,0.7,81,0.00,,,0.00,WUHU216HW,2013-02-20 16:30:00,
2013-02-20 11:35:00,69.8,63.4,30.15,NE,45,0.0,1.6,80,0.00,,,0.00,WUHU216HW,2013-02-20 16:35:00,
2013-02-20 11:40:00,70.2,63.7,30.15,East,90,0.4,1.6,80,0.00,,,0.00,WUHU216HW,2013-02-20 16:40:00,
2013-02-20 11:45:00,70.9,64.1,30.13,NW,315,1.1,2.0,79,0.00,,,0.00,WUHU216HW,2013-02-20 16:45:00,
2013-02-20 11:50:00,71.6,64.5,30.13,ESE,113,0.4,2.0,78,0.00,,,0.00,WUHU216HW,2013-02-20 16:50:00,
2013-02-20 11:55:00,72.4,64.7,30.12,North,0,0.0,1.8,77,0.00,,,0.00,WUHU216HW,2013-02-20 16:55:00,
2013-02-20 12:00:00,72.7,65.1,30.12,NNW,338,0.4,1.8,77,0.00,,,0.00,WUHU216HW,2013-02-20 17:00:00,
2013-02-20 12:05:00,72.7,64.7,30.12,NNW,338,0.0,1.1,76,0.00,,,0.00,WUHU216HW,2013-02-20 17:05:00,
2013-02-20 12:10:00,72.9,64.9,30.12,North,0,0.0,1.1,76,0.00,,,0.00,WUHU216HW,2013-02-20 17:10:00,
2013-02-20 12:15:00,73.1,64.7,30.12,WSW,248,0.0,1.1,75,0.00,,,0.00,WUHU216HW,2013-02-20 17:15:00,
2013-02-20 12:20:00,73.1,64.7,30.11,East,90,0.7,2.0,75,0.00,,,0.00,WUHU216HW,2013-02-20 17:20:00,
2013-02-20 12:25:00,73.4,65.1,30.10,NNW,338,0.0,2.0,75,0.00,,,0.00,WUHU216HW,2013-02-20 17:25:00,
2013-02-20 12:30:00,73.8,65.1,30.10,ENE,68,0.0,1.1,74,0.00,,,0.00,WUHU216HW,2013-02-20 17:30:00,
2013-02-20 12:35:00,74.2,65.0,30.10,NNE,23,0.4,1.8,73,0.00,,,0.00,WUHU216HW,2013-02-20 17:35:00,
2013-02-20 12:40:00,74.3,65.2,30.10,East,90,0.9,2.0,73,0.00,,,0.00,WUHU216HW,2013-02-20 17:40:00,
2013-02-20 12:45:00,75.1,65.4,30.10,North,0,0.4,2.0,72,0.00,,,0.00,WUHU216HW,2013-02-20 17:45:00,
2013-02-20 12:50:00,75.6,65.5,30.10,NNW,338,0.0,0.9,71,0.00,,,0.00,WUHU216HW,2013-02-20 17:50:00,
2013-02-20 12:55:00,76.0,65.9,30.10,East,90,0.7,1.1,71,0.00,,,0.00,WUHU216HW,2013-02-20 17:55:00,
2013-02-20 13:00:00,76.1,65.3,30.09,East,90,0.0,1.8,69,0.00,,,0.00,WUHU216HW,2013-02-20 18:00:00,
2013-02-20 13:05:00,76.0,65.5,30.09,East,90,0.9,1.8,70,0.00,,,0.00,WUHU216HW,2013-02-20 18:05:00,
2013-02-20 13:10:00,76.1,65.3,30.09,North,0,0.2,2.2,69,0.00,,,0.00,WUHU216HW,2013-02-20 18:10:00,
2013-02-20 13:15:00,76.3,65.4,30.09,East,90,0.7,2.2,69,0.00,,,0.00,WUHU216HW,2013-02-20 18:15:00,
2013-02-20 13:20:00,76.7,65.8,30.09,West,270,0.9,1.8,69,0.00,,,0.00,WUHU216HW,2013-02-20 18:20:00,
2013-02-20 13:25:00,77.0,65.7,30.08,West,270,0.0,1.8,68,0.00,,,0.00,WUHU216HW,2013-02-20 18:25:00,
2013-02-20 13:30:00,77.0,64.8,30.09,ESE,113,0.2,1.3,66,0.00,,,0.00,WUHU216HW,2013-02-20 18:30:00,
2013-02-20 13:35:00,77.4,65.2,30.08,SE,135,1.1,1.3,66,0.00,,,0.00,WUHU216HW,2013-02-20 18:35:00,
2013-02-20 13:40:00,77.9,65.6,30.08,WNW,293,1.1,1.1,66,0.00,,,0.00,WUHU216HW,2013-02-20 18:40:00,
2013-02-20 13:45:00,78.5,66.2,30.08,NNW,338,0.0,1.1,66,0.00,,,0.00,WUHU216HW,2013-02-20 18:45:00,
2013-02-20 13:50:00,78.3,66.0,30.08,NNW,338,0.0,1.1,66,0.00,,,0.00,WUHU216HW,2013-02-20 18:50:00,
2013-02-20 13:55:00,77.8,65.1,30.08,NNE,23,0.0,0.4,65,0.00,,,0.00,WUHU216HW,2013-02-20 18:55:00,
2013-02-20 14:00:00,77.4,64.7,30.07,SSE,158,0.4,0.9,65,0.00,,,0.00,WUHU216HW,2013-02-20 19:00:00,
2013-02-20 14:05:00,77.8,65.5,30.07,SSW,203,1.1,2.5,66,0.00,,,0.00,WUHU216HW,2013-02-20 19:05:00,
2013-02-20 14:10:00,78.1,64.5,30.07,WSW,248,0.4,2.5,63,0.00,,,0.00,WUHU216HW,2013-02-20 19:10:00,
2013-02-20 14:15:00,78.5,64.9,30.07,ESE,113,0.2,2.2,63,0.00,,,0.00,WUHU216HW,2013-02-20 19:15:00,
2013-02-20 14:20:00,78.5,64.9,30.06,WSW,248,0.4,2.2,63,0.00,,,0.00,WUHU216HW,2013-02-20 19:20:00,
2013-02-20 14:25:00,78.5,64.5,30.06,NW,315,0.2,2.0,62,0.00,,,0.00,WUHU216HW,2013-02-20 19:25:00,
2013-02-20 14:30:00,78.5,64.9,30.06,WSW,248,0.2,1.1,63,0.00,,,0.00,WUHU216HW,2013-02-20 19:30:00,
2013-02-20 14:35:00,78.7,65.0,30.06,SW,225,0.2,3.4,63,0.00,,,0.00,WUHU216HW,2013-02-20 19:35:00,
2013-02-20 14:40:00,78.5,64.0,30.05,SE,135,0.2,3.4,61,0.00,,,0.00,WUHU216HW,2013-02-20 19:40:00,
2013-02-20 14:45:00,78.5,64.5,30.06,SE,135,0.7,1.6,62,0.00,,,0.00,WUHU216HW,2013-02-20 19:45:00,
2013-02-20 14:50:00,78.7,64.6,30.06,WSW,248,0.9,1.8,62,0.00,,,0.00,WUHU216HW,2013-02-20 19:50:00,
2013-02-20 14:55:00,78.5,64.5,30.06,WNW,293,0.0,1.8,62,0.00,,,0.00,WUHU216HW,2013-02-20 19:55:00,
2013-02-20 15:00:00,78.5,64.5,30.06,WSW,248,0.7,2.2,62,0.00,,,0.00,WUHU216HW,2013-02-20 20:00:00,
2013-02-20 15:05:00,78.1,63.6,30.05,NNE,23,0.0,2.2,61,0.00,,,0.00,WUHU216HW,2013-02-20 20:05:00,
2013-02-20 15:10:00,77.8,64.2,30.05,West,270,0.4,1.6,63,0.00,,,0.00,WUHU216HW,2013-02-20 20:10:00,
2013-02-20 15:15:00,77.6,64.0,30.05,WSW,248,0.2,1.6,63,0.00,,,0.00,WUHU216HW,2013-02-20 20:15:00,
2013-02-20 15:20:00,77.4,64.3,30.05,WNW,293,0.4,1.1,64,0.00,,,0.00,WUHU216HW,2013-02-20 20:20:00,
2013-02-20 15:25:00,77.4,64.3,30.05,West,270,0.9,1.6,64,0.00,,,0.00,WUHU216HW,2013-02-20 20:25:00,
2013-02-20 15:30:00,77.4,63.8,30.05,West,270,0.0,1.6,63,0.00,,,0.00,WUHU216HW,2013-02-20 20:30:00,
2013-02-20 15:35:00,77.0,63.9,30.06,WNW,293,0.0,1.6,64,0.00,,,0.00,WUHU216HW,2013-02-20 20:35:00,
2013-02-20 15:40:00,76.9,63.7,30.06,SW,225,0.2,1.8,64,0.00,,,0.00,WUHU216HW,2013-02-20 20:40:00,
2013-02-20 15:45:00,76.7,63.5,30.06,West,270,0.7,2.5,64,0.00,,,0.00,WUHU216HW,2013-02-20 20:45:00,
2013-02-20 15:50:00,76.3,63.6,30.06,SW,225,0.0,2.5,65,0.00,,,0.00,WUHU216HW,2013-02-20 20:50:00,
2013-02-20 15:55:00,76.0,63.4,30.07,NW,315,0.4,2.5,65,0.00,,,0.00,WUHU216HW,2013-02-20 20:55:00,
2013-02-20 16:00:00,75.8,63.6,30.07,WNW,293,1.8,2.5,66,0.00,,,0.00,WUHU216HW,2013-02-20 21:00:00,
2013-02-20 16:05:00,75.2,63.1,30.07,NNW,338,0.4,4.0,66,0.00,,,0.00,WUHU216HW,2013-02-20 21:05:00,
2013-02-20 16:10:00,74.9,62.7,30.07,NNE,23,0.2,4.0,66,0.00,,,0.00,WUHU216HW,2013-02-20 21:10:00,
2013-02-20 16:15:00,74.5,62.4,30.08,West,270,0.7,1.8,66,0.00,,,0.00,WUHU216HW,2013-02-20 21:15:00,
2013-02-20 16:20:00,74.2,62.1,30.08,NNW,338,0.4,1.8,66,0.00,,,0.00,WUHU216HW,2013-02-20 21:20:00,
2013-02-20 16:25:00,73.4,61.4,30.08,NW,315,0.0,1.6,66,0.00,,,0.00,WUHU216HW,2013-02-20 21:25:00,
2013-02-20 16:30:00,73.3,61.2,30.08,WNW,293,0.7,1.6,66,0.00,,,0.00,WUHU216HW,2013-02-20 21:30:00,
2013-02-20 16:35:00,73.1,61.5,30.08,NNW,338,0.4,2.2,67,0.00,,,0.00,WUHU216HW,2013-02-20 21:35:00,
2013-02-20 16:40:00,72.7,61.1,30.08,NW,315,0.0,2.2,67,0.00,,,0.00,WUHU216HW,2013-02-20 21:40:00,
2013-02-20 16:45:00,72.5,60.9,30.08,NW,315,0.0,0.4,67,0.00,,,0.00,WUHU216HW,2013-02-20 21:45:00,
2013-02-20 16:50:00,72.4,60.8,30.09,SSW,203,0.0,1.8,67,0.00,,,0.00,WUHU216HW,2013-02-20 21:50:00,
2013-02-20 16:55:00,71.8,60.3,30.09,WSW,248,0.2,1.8,67,0.00,,,0.00,WUHU216HW,2013-02-20 21:55:00,
2013-02-20 17:00:00,71.6,60.1,30.09,WSW,248,1.1,1.1,67,0.00,,,0.00,WUHU216HW,2013-02-20 22:00:00,
2013-02-20 17:05:00,71.5,59.5,30.09,SW,225,0.4,1.3,66,0.00,,,0.00,WUHU216HW,2013-02-20 22:05:00,
2013-02-20 17:10:00,71.5,60.0,30.09,SE,135,0.4,1.3,67,0.00,,,0.00,WUHU216HW,2013-02-20 22:10:00,
2013-02-20 17:15:00,71.6,60.5,30.09,North,0,0.0,1.1,68,0.00,,,0.00,WUHU216HW,2013-02-20 22:15:00,
2013-02-20 17:20:00,71.8,60.3,30.09,North,0,0.0,1.1,67,0.00,,,0.00,WUHU216HW,2013-02-20 22:20:00,
2013-02-20 17:25:00,71.8,60.3,30.09,WSW,248,0.9,2.5,67,0.00,,,0.00,WUHU216HW,2013-02-20 22:25:00,
2013-02-20 17:30:00,71.6,59.7,30.09,NW,315,1.8,2.5,66,0.00,,,0.00,WUHU216HW,2013-02-20 22:30:00,
2013-02-20 17:35:00,70.9,59.0,30.09,West,270,0.4,1.8,66,0.00,,,0.00,WUHU216HW,2013-02-20 22:35:00,
2013-02-20 17:40:00,70.6,59.1,30.09,NNW,338,0.2,1.6,67,0.00,,,0.00,WUHU216HW,2013-02-20 22:40:00,
2013-02-20 17:45:00,70.0,58.5,30.10,West,270,0.4,0.9,67,0.00,,,0.00,WUHU216HW,2013-02-20 22:45:00,
2013-02-20 17:50:00,69.5,58.4,30.09,WSW,248,0.0,0.7,68,0.00,,,0.00,WUHU216HW,2013-02-20 22:50:00,
2013-02-20 17:55:00,69.5,58.4,30.09,NW,315,0.0,0.4,68,0.00,,,0.00,WUHU216HW,2013-02-20 22:55:00,
2013-02-20 18:00:00,69.1,58.1,30.09,WNW,293,0.0,0.4,68,0.00,,,0.00,WUHU216HW,2013-02-20 23:00:00,
2013-02-20 18:05:00,68.8,57.8,30.09,WSW,248,0.0,0.4,68,0.00,,,0.00,WUHU216HW,2013-02-20 23:05:00,
2013-02-20 18:10:00,68.6,58.1,30.09,WNW,293,0.0,0.2,69,0.00,,,0.00,WUHU216HW,2013-02-20 23:10:00,
2013-02-20 18:15:00,68.2,57.7,30.09,WNW,293,0.0,0.2,69,0.00,,,0.00,WUHU216HW,2013-02-20 23:15:00,
2013-02-20 18:20:00,67.9,57.3,30.09,West,270,0.0,0.2,69,0.00,,,0.00,WUHU216HW,2013-02-20 23:20:00,
2013-02-20 18:25:00,67.7,57.6,30.09,West,270,0.0,0.0,70,0.00,,,0.00,WUHU216HW,2013-02-20 23:25:00,
2013-02-20 18:30:00,67.7,57.6,30.09,West,270,0.0,0.0,70,0.00,,,0.00,WUHU216HW,2013-02-20 23:30:00,
2013-02-20 18:35:00,67.3,57.2,30.10,West,270,0.0,0.0,70,0.00,,,0.00,WUHU216HW,2013-02-20 23:35:00,
2013-02-20 18:40:00,67.3,57.2,30.10,West,270,0.0,0.0,70,0.00,,,0.00,WUHU216HW,2013-02-20 23:40:00,
2013-02-20 18:45:00,67.1,57.1,30.10,West,270,0.0,0.0,70,0.00,,,0.00,WUHU216HW,2013-02-20 23:45:00,
2013-02-20 18:50:00,67.0,56.9,30.10,West,270,0.0,0.0,70,0.00,,,0.00,WUHU216HW,2013-02-20 23:50:00,
2013-02-20 18:55:00,66.8,57.1,30.10,West,270,0.0,0.0,71,0.00,,,0.00,WUHU216HW,2013-02-20 23:55:00,
2013-02-20 19:00:00,66.6,56.9,30.10,West,270,0.0,0.0,71,0.00,,,0.00,WUHU216HW,2013-02-21 00:00:00,
2013-02-20 19:05:00,66.4,57.1,30.10,West,270,0.0,0.0,72,0.00,,,0.00,WUHU216HW,2013-02-21 00:05:00,
2013-02-20 19:10:00,66.2,56.9,30.10,NW,315,0.0,0.0,72,0.00,,,0.00,WUHU216HW,2013-02-21 00:10:00,
2013-02-20 19:15:00,65.9,56.6,30.10,NW,315,0.0,0.0,72,0.00,,,0.00,WUHU216HW,2013-02-21 00:15:00,
2013-02-20 19:20:00,65.9,57.0,30.10,NW,315,0.0,0.0,73,0.00,,,0.00,WUHU216HW,2013-02-21 00:20:00,
2013-02-20 19:25:00,65.7,56.8,30.10,NW,315,0.0,0.0,73,0.00,,,0.00,WUHU216HW,2013-02-21 00:25:00,
2013-02-20 19:30:00,65.5,56.6,30.10,NNW,338,0.0,0.0,73,0.00,,,0.00,WUHU216HW,2013-02-21 00:30:00,
2013-02-20 19:35:00,65.3,56.4,30.10,NNW,338,0.0,0.2,73,0.00,,,0.00,WUHU216HW,2013-02-21 00:35:00,
2013-02-20 19:40:00,65.2,56.3,30.11,NW,315,0.0,0.2,73,0.00,,,0.00,WUHU216HW,2013-02-21 00:40:00,
2013-02-20 19:45:00,65.2,56.3,30.11,NW,315,0.0,0.0,73,0.00,,,0.00,WUHU216HW,2013-02-21 00:45:00,
2013-02-20 19:50:00,65.0,56.2,30.11,NW,315,0.0,0.0,73,0.00,,,0.00,WUHU216HW,2013-02-21 00:50:00,
2013-02-20 19:55:00,65.0,56.2,30.11,NW,315,0.0,0.0,73,0.00,,,0.00,WUHU216HW,2013-02-21 00:55:00,
2013-02-20 20:00:00,64.8,56.0,30.11,NNE,23,0.0,0.4,73,0.00,,,0.00,WUHU216HW,2013-02-21 01:00:00,
2013-02-20 20:05:00,64.8,56.4,30.11,North,0,0.0,0.4,74,0.00,,,0.00,WUHU216HW,2013-02-21 01:05:00,
2013-02-20 20:10:00,64.8,56.4,30.11,North,0,0.0,0.0,74,0.00,,,0.00,WUHU216HW,2013-02-21 01:10:00,
2013-02-20 20:15:00,64.8,56.4,30.11,NE,45,0.0,0.0,74,0.00,,,0.00,WUHU216HW,2013-02-21 01:15:00,
2013-02-20 20:20:00,64.8,56.4,30.11,North,0,0.0,0.0,74,0.00,,,0.00,WUHU216HW,2013-02-21 01:20:00,
2013-02-20 20:25:00,64.8,56.0,30.11,NNE,23,0.0,0.0,73,0.00,,,0.00,WUHU216HW,2013-02-21 01:25:00,
2013-02-20 20:30:00,64.6,55.8,30.11,North,0,0.0,0.0,73,0.00,,,0.00,WUHU216HW,2013-02-21 01:30:00,
2013-02-20 20:35:00,64.4,55.6,30.11,North,0,0.0,0.0,73,0.00,,,0.00,WUHU216HW,2013-02-21 01:35:00,
2013-02-20 20:40:00,64.4,56.0,30.11,North,0,0.0,0.0,74,0.00,,,0.00,WUHU216HW,2013-02-21 01:40:00,
2013-02-20 20:45:00,64.3,55.4,30.11,North,0,0.0,0.0,73,0.00,,,0.00,WUHU216HW,2013-02-21 01:45:00,
2013-02-20 20:50:00,64.3,55.8,30.12,North,0,0.0,0.0,74,0.00,,,0.00,WUHU216HW,2013-02-21 01:50:00,
2013-02-20 20:55:00,64.1,55.6,30.12,North,0,0.0,0.0,74,0.00,,,0.00,WUHU216HW,2013-02-21 01:55:00,
2013-02-20 21:00:00,64.1,55.6,30.12,North,0,0.0,0.0,74,0.00,,,0.00,WUHU216HW,2013-02-21 02:00:00,
2013-02-20 21:05:00,64.1,55.6,30.12,North,0,0.0,0.0,74,0.00,,,0.00,WUHU216HW,2013-02-21 02:05:00,
2013-02-20 21:10:00,63.9,55.4,30.12,North,0,0.0,0.0,74,0.00,,,0.00,WUHU216HW,2013-02-21 02:10:00,
2013-02-20 21:16:00,63.9,55.4,30.12,North,0,0.0,0.0,74,0.00,,,0.00,WUHU216HW,2013-02-21 02:16:00,
2013-02-20 21:21:00,63.9,55.4,30.12,North,0,0.0,0.0,74,0.00,,,0.00,WUHU216HW,2013-02-21 02:21:00,
2013-02-20 21:26:00,63.7,55.3,30.13,NNW,338,0.0,0.0,74,0.00,,,0.00,WUHU216HW,2013-02-21 02:26:00,
2013-02-20 21:31:00,63.7,55.3,30.13,NNE,23,0.0,0.0,74,0.00,,,0.00,WUHU216HW,2013-02-21 02:31:00,
2013-02-20 21:36:00,63.7,55.3,30.13,North,0,0.0,0.0,74,0.00,,,0.00,WUHU216HW,2013-02-21 02:36:00,
2013-02-20 21:41:00,63.7,55.3,30.13,NNE,23,0.0,0.0,74,0.00,,,0.00,WUHU216HW,2013-02-21 02:41:00,
2013-02-20 21:46:00,63.5,55.1,30.13,NNW,338,0.0,0.0,74,0.00,,,0.00,WUHU216HW,2013-02-21 02:46:00,
2013-02-20 21:51:00,63.5,55.1,30.13,NNE,23,0.0,0.2,74,0.00,,,0.00,WUHU216HW,2013-02-21 02:51:00,
2013-02-20 21:56:00,63.4,54.9,30.13,North,0,0.0,0.2,74,0.00,,,0.00,WUHU216HW,2013-02-21 02:56:00,
2013-02-20 22:01:00,63.2,54.7,30.13,NNE,23,0.0,0.2,74,0.00,,,0.00,WUHU216HW,2013-02-21 03:01:00,
2013-02-20 22:06:00,63.2,54.7,30.13,North,0,0.0,0.2,74,0.00,,,0.00,WUHU216HW,2013-02-21 03:06:00,
2013-02-20 22:11:00,63.2,54.7,30.13,NNE,23,0.0,0.2,74,0.00,,,0.00,WUHU216HW,2013-02-21 03:11:00,
2013-02-20 22:16:00,63.2,54.7,30.13,NE,45,0.0,0.0,74,0.00,,,0.00,WUHU216HW,2013-02-21 03:16:00,
2013-02-20 22:21:00,63.4,54.9,30.13,NNW,338,0.0,0.0,74,0.00,,,0.00,WUHU216HW,2013-02-21 03:21:00,
2013-02-20 22:26:00,63.4,54.9,30.13,North,0,0.0,0.2,74,0.00,,,0.00,WUHU216HW,2013-02-21 03:26:00,
2013-02-20 22:31:00,63.2,54.7,30.13,North,0,0.0,0.2,74,0.00,,,0.00,WUHU216HW,2013-02-21 03:31:00,
2013-02-20 22:36:00,63.0,54.5,30.12,North,0,0.0,0.0,74,0.00,,,0.00,WUHU216HW,2013-02-21 03:36:00,
2013-02-20 22:41:00,63.0,54.5,30.12,North,0,0.0,0.0,74,0.00,,,0.00,WUHU216HW,2013-02-21 03:41:00,
2013-02-20 22:46:00,63.0,54.5,30.12,North,0,0.0,0.2,74,0.00,,,0.00,WUHU216HW,2013-02-21 03:46:00,
2013-02-20 22:51:00,63.0,54.5,30.11,NNE,23,0.0,0.2,74,0.00,,,0.00,WUHU216HW,2013-02-21 03:51:00,
2013-02-20 22:56:00,62.8,54.4,30.11,NNW,338,0.0,0.0,74,0.00,,,0.00,WUHU216HW,2013-02-21 03:56:00,
2013-02-20 23:01:00,62.8,54.4,30.11,North,0,0.0,0.0,74,0.00,,,0.00,WUHU216HW,2013-02-21 04:01:00,
2013-02-20 23:06:00,62.8,54.7,30.10,North,0,0.0,0.0,75,0.00,,,0.00,WUHU216HW,2013-02-21 04:06:00,
2013-02-20 23:11:00,62.6,54.2,30.10,NNE,23,0.0,0.0,74,0.00,,,0.00,WUHU216HW,2013-02-21 04:11:00,
2013-02-20 23:16:00,62.6,54.2,30.10,NNE,23,0.0,0.0,74,0.00,,,0.00,WUHU216HW,2013-02-21 04:16:00,
2013-02-20 23:21:00,62.6,54.2,30.11,NE,45,0.0,0.0,74,0.00,,,0.00,WUHU216HW,2013-02-21 04:21:00,
2013-02-20 23:26:00,62.6,54.2,30.11,NNE,23,0.0,0.0,74,0.00,,,0.00,WUHU216HW,2013-02-21 04:26:00,
2013-02-20 23:31:00,62.6,54.2,30.11,ENE,68,0.0,0.0,74,0.00,,,0.00,WUHU216HW,2013-02-21 04:31:00,
2013-02-20 23:36:00,62.5,54.4,30.10,North,0,0.0,0.0,75,0.00,,,0.00,WUHU216HW,2013-02-21 04:36:00,
2013-02-20 23:41:00,62.3,54.2,30.10,North,0,0.0,0.0,75,0.00,,,0.00,WUHU216HW,2013-02-21 04:41:00,
2013-02-20 23:46:00,62.3,54.2,30.10,North,0,0.0,0.0,75,0.00,,,0.00,WUHU216HW,2013-02-21 04:46:00,
2013-02-20 23:51:00,62.3,54.2,30.10,NNW,338,0.0,0.0,75,0.00,,,0.00,WUHU216HW,2013-02-21 04:51:00,
2013-02-20 23:56:00,62.3,54.2,30.09,NNE,23,0.0,0.0,75,0.00,,,0.00,WUHU216HW,2013-02-21 04:56:00,